createdAt,value
2023-02-19T00:01:16.492Z,102532.34
2023-02-19T00:03:43.935Z,102533.28
2023-02-19T00:06:11.387Z,102528.88
2023-02-19T00:08:39.048Z,102533.28
2023-02-19T00:11:07.004Z,102530.72
2023-02-19T00:13:37.927Z,102526.19
2023-02-19T00:16:13.875Z,102519.09
2023-02-19T00:18:40.972Z,102522.56
2023-02-19T00:21:08.075Z,102517.03
2023-02-19T00:23:35.188Z,102513.38
2023-02-19T00:26:17.203Z,102514.50
2023-02-19T00:28:45.481Z,102507.34
2023-02-19T00:31:21.937Z,102503.69
2023-02-19T00:33:49.676Z,102498.31
2023-02-19T00:36:16.287Z,102493.81
2023-02-19T00:38:43.807Z,102497.47
2023-02-19T00:41:20.802Z,102490.97
2023-02-19T00:43:56.572Z,102492.63
2023-02-19T00:46:27.280Z,102494.25
2023-02-19T00:48:54.517Z,102491.41
2023-02-19T00:51:23.208Z,102490.38
2023-02-19T00:53:49.926Z,102487.63
2023-02-19T00:56:16.596Z,102489.50
2023-02-19T00:58:43.176Z,102487.63
2023-02-19T01:01:11.082Z,102483.97
2023-02-19T01:03:39.158Z,102475.97
2023-02-19T01:06:09.892Z,102481.28
2023-02-19T01:08:36.873Z,102477.88
2023-02-19T01:11:05.117Z,102474.59
2023-02-19T01:13:32.124Z,102483.00
2023-02-19T01:16:10.774Z,102475.03
2023-02-19T01:18:37.495Z,102467.94
2023-02-19T01:21:09.166Z,102469.66
2023-02-19T01:23:36.468Z,102472.19
2023-02-19T01:26:09.383Z,102466.63
2023-02-19T01:28:36.221Z,102468.38
2023-02-19T01:31:07.754Z,102459.56
2023-02-19T01:33:37.423Z,102453.28
2023-02-19T01:36:04.961Z,102456.75
2023-02-19T01:38:31.858Z,102450.38
2023-02-19T01:41:00.688Z,102443.25
2023-02-19T01:43:30.085Z,102445.88
2023-02-19T01:45:56.627Z,102439.63
2023-02-19T01:48:26.154Z,102436.84
2023-02-19T01:51:11.588Z,102437.03
2023-02-19T01:53:42.248Z,102431.75
2023-02-19T01:56:09.651Z,102421.97
2023-02-19T01:58:37.255Z,102432.78
2023-02-19T02:01:07.118Z,102427.69
2023-02-19T02:03:34.942Z,102426.03
2023-02-19T02:06:22.795Z,102422.59
2023-02-19T02:09:13.975Z,102409.31
2023-02-19T02:11:43.724Z,102412.00
2023-02-19T02:14:10.426Z,102416.50
2023-02-19T02:17:10.905Z,102408.72
2023-02-19T02:19:59.382Z,102406.13
2023-02-19T02:22:33.114Z,102411.22
2023-02-19T02:25:12.897Z,102398.50
2023-02-19T02:27:45.540Z,102393.84
2023-02-19T02:30:15.178Z,102389.16
2023-02-19T02:32:53.704Z,102386.13
2023-02-19T02:35:23.925Z,102379.53
2023-02-19T02:37:51.205Z,102377.56
2023-02-19T02:40:18.823Z,102370.16
2023-02-19T02:42:45.410Z,102370.00
2023-02-19T02:45:36.297Z,102364.56
2023-02-19T02:48:24.919Z,102367.97
2023-02-19T02:51:06.856Z,102369.53
2023-02-19T02:53:56.190Z,102373.00
2023-02-19T02:56:24.984Z,102364.78
2023-02-19T02:58:52.825Z,102366.50
2023-02-19T03:01:44.642Z,102362.88
2023-02-19T03:04:15.978Z,102358.00
2023-02-19T03:06:43.760Z,102357.50
2023-02-19T03:09:18.111Z,102354.25
2023-02-19T03:12:05.769Z,102357.97
2023-02-19T03:14:56.423Z,102356.25
2023-02-19T03:17:49.122Z,102355.47
2023-02-19T03:20:16.301Z,102353.75
2023-02-19T03:22:43.551Z,102346.56
2023-02-19T03:25:36.323Z,102349.31
2023-02-19T03:28:04.609Z,102353.91
2023-02-19T03:30:40.394Z,102355.81
2023-02-19T03:33:12.338Z,102356.00
2023-02-19T03:35:40.884Z,102354.25
2023-02-19T03:38:18.636Z,102354.25
2023-02-19T03:41:14.210Z,102361.66
2023-02-19T03:43:45.482Z,102359.03
2023-02-19T03:46:23.284Z,102358.25
2023-02-19T03:48:59.641Z,102352.13
2023-02-19T03:51:39.215Z,102354.81
2023-02-19T03:54:11.858Z,102363.63
2023-02-19T03:56:45.651Z,102358.19
2023-02-19T03:59:19.151Z,102365.09
2023-02-19T04:02:18.530Z,102365.69
2023-02-19T04:04:52.143Z,102367.25
2023-02-19T04:07:18.874Z,102367.94
2023-02-19T04:09:48.822Z,102368.81
2023-02-19T04:12:15.808Z,102366.81
2023-02-19T04:14:46.535Z,102360.41
2023-02-19T04:17:33.780Z,102363.59
2023-02-19T04:20:01.067Z,102366.19
2023-02-19T04:22:27.991Z,102369.66
2023-02-19T04:24:55.640Z,102373.09
2023-02-19T04:27:22.155Z,102370.31
2023-02-19T04:29:48.676Z,102375.59
2023-02-19T04:32:15.352Z,102371.84
2023-02-19T04:34:41.939Z,102374.47
2023-02-19T04:37:08.529Z,102372.63
2023-02-19T04:39:35.106Z,102378.00
2023-02-19T04:42:01.654Z,102373.41
2023-02-19T04:44:28.594Z,102368.03
2023-02-19T04:46:55.429Z,102374.38
2023-02-19T04:49:21.995Z,102371.84
2023-02-19T04:51:48.516Z,102370.16
2023-02-19T04:54:15.148Z,102370.22
2023-02-19T04:56:41.692Z,102364.78
2023-02-19T04:59:08.278Z,102354.81
2023-02-19T05:01:35.511Z,102353.94
2023-02-19T05:04:02.173Z,102357.56
2023-02-19T05:06:29.814Z,102352.28
2023-02-19T05:08:56.354Z,102358.56
2023-02-19T05:11:23.892Z,102350.50
2023-02-19T05:13:50.580Z,102348.66
2023-02-19T05:16:17.462Z,102345.00
2023-02-19T05:18:45.643Z,102345.91
2023-02-19T05:21:12.772Z,102346.84
2023-02-19T05:23:39.553Z,102343.56
2023-02-19T05:26:09.176Z,102353.03
2023-02-19T05:28:36.065Z,102358.56
2023-02-19T05:31:10.616Z,102363.25
2023-02-19T05:33:38.095Z,102362.56
2023-02-19T05:36:07.384Z,102367.25
2023-02-19T05:38:33.999Z,102366.53
2023-02-19T05:41:16.139Z,102359.63
2023-02-19T05:43:43.246Z,102361.72
2023-02-19T05:46:13.306Z,102358.41
2023-02-19T05:48:39.963Z,102357.06
2023-02-19T05:51:14.588Z,102353.59
2023-02-19T05:53:42.033Z,102352.81
2023-02-19T05:56:25.020Z,102339.41
2023-02-19T05:58:51.823Z,102350.06
2023-02-19T06:01:19.877Z,102335.59
2023-02-19T06:03:46.579Z,102333.84
2023-02-19T06:06:18.720Z,102332.13
2023-02-19T06:08:46.077Z,102326.94
2023-02-19T06:11:12.877Z,102328.84
2023-02-19T06:13:39.619Z,102327.09
2023-02-19T06:16:09.775Z,102328.84
2023-02-19T06:18:36.854Z,102326.25
2023-02-19T06:21:09.331Z,102329.78
2023-02-19T06:23:36.054Z,102335.94
2023-02-19T06:26:23.226Z,102331.44
2023-02-19T06:28:51.766Z,102336.63
2023-02-19T06:31:19.537Z,102333.84
2023-02-19T06:33:46.694Z,102336.53
2023-02-19T06:36:15.599Z,102343.81
2023-02-19T06:38:42.389Z,102341.22
2023-02-19T06:41:10.101Z,102342.34
2023-02-19T06:43:37.201Z,102346.66
2023-02-19T06:46:05.385Z,102344.28
2023-02-19T06:48:33.129Z,102343.63
2023-02-19T06:50:59.845Z,102345.16
2023-02-19T06:53:26.690Z,102348.09
2023-02-19T06:56:09.097Z,102350.16
2023-02-19T06:58:35.663Z,102351.16
2023-02-19T07:01:02.342Z,102345.34
2023-02-19T07:03:28.958Z,102348.22
2023-02-19T07:05:55.556Z,102348.59
2023-02-19T07:08:22.201Z,102340.22
2023-02-19T07:10:58.629Z,102336.22
2023-02-19T07:13:26.874Z,102332.44
2023-02-19T07:16:02.699Z,102334.03
2023-02-19T07:18:29.836Z,102330.38
2023-02-19T07:21:02.812Z,102341.81
2023-02-19T07:23:29.341Z,102342.66
2023-02-19T07:25:55.919Z,102352.28
2023-02-19T07:28:26.618Z,102357.38
2023-02-19T07:30:53.322Z,102349.25
2023-02-19T07:33:20.037Z,102347.34
2023-02-19T07:35:47.798Z,102347.34
2023-02-19T07:38:18.309Z,102346.31
2023-02-19T07:40:59.277Z,102346.94
2023-02-19T07:43:27.549Z,102344.94
2023-02-19T07:45:56.902Z,102356.47
2023-02-19T07:48:23.859Z,102357.97
2023-02-19T07:50:59.280Z,102351.41
2023-02-19T07:53:27.109Z,102352.13
2023-02-19T07:55:53.835Z,102356.50
2023-02-19T07:58:20.465Z,102353.66
2023-02-19T08:00:47.197Z,102357.13
2023-02-19T08:03:13.825Z,102355.22
2023-02-19T08:05:42.029Z,102356.78
2023-02-19T08:08:10.534Z,102362.75
2023-02-19T08:10:55.729Z,102357.09
2023-02-19T08:13:23.235Z,102359.41
2023-02-19T08:15:55.146Z,102360.13
2023-02-19T08:18:27.344Z,102358.28
2023-02-19T08:20:55.269Z,102356.50
2023-02-19T08:23:22.604Z,102354.66
2023-02-19T08:25:50.768Z,102351.88
2023-02-19T08:28:17.876Z,102355.44
2023-02-19T08:30:46.137Z,102355.34
2023-02-19T08:33:14.895Z,102354.19
2023-02-19T08:35:42.923Z,102352.13
2023-02-19T08:38:11.189Z,102359.03
2023-02-19T08:40:39.339Z,102355.31
2023-02-19T08:43:14.135Z,102360.47
2023-02-19T08:45:42.517Z,102355.22
2023-02-19T08:48:09.767Z,102349.66
2023-02-19T08:50:36.779Z,102350.34
2023-02-19T08:53:04.476Z,102359.09
2023-02-19T08:55:33.150Z,102357.25
2023-02-19T08:57:59.945Z,102350.84
2023-02-19T09:00:27.440Z,102353.34
2023-02-19T09:02:53.973Z,102349.53
2023-02-19T09:05:20.544Z,102350.09
2023-02-19T09:07:47.088Z,102353.47
2023-02-19T09:10:14.151Z,102358.72
2023-02-19T09:12:40.931Z,102357.72
2023-02-19T09:15:07.876Z,102362.75
2023-02-19T09:17:34.554Z,102361.59
2023-02-19T09:20:01.123Z,102352.34
2023-02-19T09:22:27.686Z,102357.28
2023-02-19T09:24:54.320Z,102351.72
2023-02-19T09:27:21.344Z,102358.63
2023-02-19T09:29:48.051Z,102362.09
2023-02-19T09:32:14.742Z,102366.28
2023-02-19T09:34:41.730Z,102370.53
2023-02-19T09:37:08.699Z,102369.28
2023-02-19T09:39:35.867Z,102367.19
2023-02-19T09:42:17.640Z,102368.59
2023-02-19T09:44:50.226Z,102368.22
2023-02-19T09:47:25.015Z,102375.22
2023-02-19T09:49:54.658Z,102377.66
2023-02-19T09:52:40.121Z,102384.34
2023-02-19T09:55:21.424Z,102374.91
2023-02-19T09:57:48.759Z,102377.34
2023-02-19T10:00:26.982Z,102384.13
2023-02-19T10:03:34.474Z,102381.91
2023-02-19T10:06:09.453Z,102380.66
2023-02-19T10:08:38.060Z,102372.94
2023-02-19T10:11:05.630Z,102377.91
2023-02-19T10:13:35.874Z,102371.38
2023-02-19T10:16:05.310Z,102374.47
2023-02-19T10:18:38.480Z,102380.97
2023-02-19T10:21:05.827Z,102373.44
2023-02-19T10:23:32.746Z,102375.94
2023-02-19T10:26:00.286Z,102371.84
2023-02-19T10:28:36.588Z,102375.75
2023-02-19T10:31:06.830Z,102374.25
2023-02-19T10:33:33.345Z,102378.19
2023-02-19T10:36:04.041Z,102367.81
2023-02-19T10:38:34.580Z,102370.97
2023-02-19T10:41:06.167Z,102369.44
2023-02-19T10:43:37.178Z,102359.94
2023-02-19T10:46:15.502Z,102359.31
2023-02-19T10:48:47.106Z,102365.25
2023-02-19T10:51:15.314Z,102368.06
2023-02-19T10:53:49.888Z,102366.47
2023-02-19T10:56:27.632Z,102366.13
2023-02-19T10:58:55.187Z,102371.31
2023-02-19T11:01:24.079Z,102367.22
2023-02-19T11:04:09.968Z,102366.66
2023-02-19T11:06:36.782Z,102356.84
2023-02-19T11:09:03.418Z,102357.59
2023-02-19T11:11:38.390Z,102352.75
2023-02-19T11:14:15.863Z,102349.06
2023-02-19T11:16:44.976Z,102337.84
2023-02-19T11:19:30.487Z,102339.13
2023-02-19T11:21:58.341Z,102342.13
2023-02-19T11:24:37.547Z,102336.50
2023-02-19T11:27:06.121Z,102336.16
2023-02-19T11:29:35.549Z,102331.31
2023-02-19T11:32:20.813Z,102320.06
2023-02-19T11:34:48.187Z,102316.50
2023-02-19T11:37:21.036Z,102318.09
2023-02-19T11:39:48.908Z,102318.50
2023-02-19T11:42:34.329Z,102315.47
2023-02-19T11:45:14.774Z,102312.53
2023-02-19T11:48:03.363Z,102314.91
2023-02-19T11:50:52.776Z,102302.88
2023-02-19T11:53:32.285Z,102300.94
2023-02-19T11:56:33.958Z,102298.63
2023-02-19T11:59:05.506Z,102288.31
2023-02-19T12:01:35.033Z,102295.00
2023-02-19T12:04:32.467Z,102291.47
2023-02-19T12:07:18.452Z,102297.84
2023-02-19T12:10:13.204Z,102283.09
2023-02-19T12:13:04.777Z,102280.09
2023-02-19T12:15:32.914Z,102275.16
2023-02-19T12:18:19.038Z,102273.94
2023-02-19T12:21:03.970Z,102277.84
2023-02-19T12:23:49.120Z,102278.19
2023-02-19T12:26:24.461Z,102269.44
2023-02-19T12:29:19.216Z,102267.22
2023-02-19T12:31:58.227Z,102258.81
2023-02-19T12:34:46.673Z,102252.69
2023-02-19T12:37:13.220Z,102248.53
2023-02-19T12:40:17.100Z,102238.25
2023-02-19T12:43:06.939Z,102233.06
2023-02-19T12:45:36.090Z,102233.06
2023-02-19T12:48:13.623Z,102231.38
2023-02-19T12:50:40.773Z,102228.41
2023-02-19T12:53:30.666Z,102225.13
2023-02-19T12:55:57.644Z,102217.47
2023-02-19T12:58:32.586Z,102212.66
2023-02-19T13:00:59.920Z,102218.75
2023-02-19T13:03:35.475Z,102211.47
2023-02-19T13:06:26.759Z,102206.38
2023-02-19T13:09:09.058Z,102207.47
2023-02-19T13:11:59.951Z,102198.53
2023-02-19T13:14:30.738Z,102197.09
2023-02-19T13:17:08.742Z,102197.16
2023-02-19T13:19:39.747Z,102195.59
2023-02-19T13:22:42.997Z,102197.44
2023-02-19T13:25:10.267Z,102192.25
2023-02-19T13:27:42.416Z,102194.75
2023-02-19T13:30:18.817Z,102192.56
2023-02-19T13:32:58.939Z,102180.78
2023-02-19T13:35:50.520Z,102177.59
2023-02-19T13:38:17.307Z,102184.16
2023-02-19T13:40:54.614Z,102182.59
2023-02-19T13:43:39.055Z,102177.44
2023-02-19T13:46:11.064Z,102171.44
2023-02-19T13:48:40.532Z,102168.03
2023-02-19T13:51:13.530Z,102159.94
2023-02-19T13:53:45.888Z,102161.31
2023-02-19T13:56:31.367Z,102158.72
2023-02-19T13:59:38.063Z,102163.25
2023-02-19T14:02:04.627Z,102160.03
2023-02-19T14:04:42.354Z,102154.28
2023-02-19T14:07:08.859Z,102152.94
2023-02-19T14:09:40.989Z,102148.13
2023-02-19T14:12:07.600Z,102149.94
2023-02-19T14:14:40.840Z,102151.88
2023-02-19T14:17:13.161Z,102150.09
2023-02-19T14:19:42.505Z,102150.69
2023-02-19T14:22:46.247Z,102153.84
2023-02-19T14:25:30.818Z,102153.59
2023-02-19T14:28:06.733Z,102147.66
2023-02-19T14:30:35.409Z,102149.97
2023-02-19T14:33:10.531Z,102144.06
2023-02-19T14:35:43.398Z,102142.41
2023-02-19T14:38:22.781Z,102139.44
2023-02-19T14:40:50.203Z,102146.34
2023-02-19T14:43:19.377Z,102149.25
2023-02-19T14:45:53.988Z,102148.75
2023-02-19T14:48:26.957Z,102145.41
2023-02-19T14:50:58.233Z,102144.75
2023-02-19T14:53:28.083Z,102157.06
2023-02-19T14:55:55.322Z,102158.25
2023-02-19T14:58:29.174Z,102149.44
2023-02-19T15:00:55.874Z,102158.59
2023-02-19T15:03:27.142Z,102162.16
2023-02-19T15:05:59.598Z,102154.41
2023-02-19T15:08:36.602Z,102159.03
2023-02-19T15:11:04.764Z,102156.16
2023-02-19T15:13:31.819Z,102157.00
2023-02-19T15:15:58.517Z,102160.19
2023-02-19T15:18:26.741Z,102152.31
2023-02-19T15:21:04.645Z,102162.97
2023-02-19T15:23:33.060Z,102171.09
2023-02-19T15:26:00.850Z,102164.28
2023-02-19T15:28:32.620Z,102171.91
2023-02-19T15:30:59.113Z,102166.31
2023-02-19T15:33:27.355Z,102171.97
2023-02-19T15:35:58.506Z,102173.91
2023-02-19T15:38:25.727Z,102173.81
2023-02-19T15:40:53.431Z,102169.41
2023-02-19T15:43:26.104Z,102174.03
2023-02-19T15:45:56.598Z,102173.50
2023-02-19T15:48:27.874Z,102175.25
2023-02-19T15:51:02.922Z,102176.19
2023-02-19T15:53:31.239Z,102177.25
2023-02-19T15:56:32.693Z,102193.03
2023-02-19T15:59:05.798Z,102185.94
2023-02-19T16:01:41.703Z,102173.13
2023-02-19T16:04:14.066Z,102174.97
2023-02-19T16:06:52.704Z,102164.63
2023-02-19T16:09:31.898Z,102177.13
2023-02-19T16:12:00.462Z,102178.06
2023-02-19T16:14:29.209Z,102171.94
2023-02-19T16:17:01.430Z,102161.94
2023-02-19T16:19:30.553Z,102160.00
2023-02-19T16:21:58.216Z,102158.00
2023-02-19T16:24:37.292Z,102164.22
2023-02-19T16:27:04.635Z,102158.28
2023-02-19T16:29:33.066Z,102156.78
2023-02-19T16:32:02.560Z,102152.16
2023-02-19T16:34:50.609Z,102155.59
2023-02-19T16:37:34.272Z,102158.38
2023-02-19T16:40:11.123Z,102149.38
2023-02-19T16:43:06.734Z,102154.63
2023-02-19T16:45:33.453Z,102158.59
2023-02-19T16:48:00.501Z,102158.88
2023-02-19T16:50:27.297Z,102156.31
2023-02-19T16:52:59.159Z,102160.81
2023-02-19T16:55:26.096Z,102170.81
2023-02-19T16:57:52.894Z,102171.97
2023-02-19T17:00:21.796Z,102172.19
2023-02-19T17:02:50.314Z,102168.53
2023-02-19T17:05:18.457Z,102164.03
2023-02-19T17:07:45.047Z,102168.53
2023-02-19T17:10:23.520Z,102174.97
2023-02-19T17:12:54.420Z,102172.38
2023-02-19T17:15:21.639Z,102178.81
2023-02-19T17:17:48.441Z,102175.56
2023-02-19T17:20:17.834Z,102184.69
2023-02-19T17:22:44.650Z,102176.72
2023-02-19T17:25:11.510Z,102189.09
2023-02-19T17:27:40.565Z,102194.38
2023-02-19T17:30:12.498Z,102193.41
2023-02-19T17:32:39.049Z,102181.88
2023-02-19T17:35:06.094Z,102183.53
2023-02-19T17:37:32.670Z,102183.53
2023-02-19T17:39:59.150Z,102174.59
2023-02-19T17:42:25.933Z,102180.94
2023-02-19T17:44:53.557Z,102187.16
2023-02-19T17:47:21.331Z,102177.28
2023-02-19T17:49:47.965Z,102189.84
2023-02-19T17:52:17.590Z,102195.16
2023-02-19T17:54:44.202Z,102184.19
2023-02-19T17:57:10.751Z,102200.31
2023-02-19T17:59:37.383Z,102207.44
2023-02-19T18:02:04.042Z,102211.81
2023-02-19T18:04:30.798Z,102217.31
2023-02-19T18:06:57.681Z,102217.31
2023-02-19T18:09:24.674Z,102219.03
2023-02-19T18:11:51.225Z,102227.00
2023-02-19T18:14:17.777Z,102231.31
2023-02-19T18:16:50.117Z,102221.41
2023-02-19T18:19:17.170Z,102221.53
2023-02-19T18:21:43.650Z,102224.22
2023-02-19T18:24:10.290Z,102219.25
2023-02-19T18:26:36.882Z,102216.75
2023-02-19T18:29:05.426Z,102221.66
2023-02-19T18:31:33.185Z,102240.75
2023-02-19T18:33:59.880Z,102237.22
2023-02-19T18:36:26.486Z,102240.84
2023-02-19T18:38:53.023Z,102252.44
2023-02-19T18:41:21.208Z,102256.97
2023-02-19T18:43:48.141Z,102260.69
2023-02-19T18:46:15.148Z,102258.94
2023-02-19T18:48:41.762Z,102252.78
2023-02-19T18:51:11.912Z,102261.53
2023-02-19T18:53:38.768Z,102262.25
2023-02-19T18:56:05.684Z,102272.22
2023-02-19T18:58:33.713Z,102269.59
2023-02-19T19:01:00.288Z,102260.50
2023-02-19T19:03:39.571Z,102257.81
2023-02-19T19:06:06.262Z,102269.47
2023-02-19T19:08:32.847Z,102267.00
2023-02-19T19:11:00.938Z,102271.50
2023-02-19T19:13:27.469Z,102262.50
2023-02-19T19:15:54.173Z,102266.22
2023-02-19T19:18:20.956Z,102267.97
2023-02-19T19:20:47.726Z,102258.09
2023-02-19T19:23:14.379Z,102272.22
2023-02-19T19:25:40.919Z,102274.06
2023-02-19T19:28:07.621Z,102272.28
2023-02-19T19:30:34.336Z,102279.50
2023-02-19T19:33:02.524Z,102279.31
2023-02-19T19:35:29.662Z,102265.78
2023-02-19T19:37:56.225Z,102278.16
2023-02-19T19:40:22.856Z,102273.78
2023-02-19T19:42:51.248Z,102265.72
2023-02-19T19:45:18.256Z,102275.59
2023-02-19T19:47:44.955Z,102270.22
2023-02-19T19:50:13.260Z,102275.47
2023-02-19T19:52:40.043Z,102271.84
2023-02-19T19:55:07.205Z,102274.53
2023-02-19T19:57:33.802Z,102282.69
2023-02-19T20:00:01.168Z,102288.16
2023-02-19T20:02:27.806Z,102278.47
2023-02-19T20:04:54.506Z,102283.66
2023-02-19T20:07:21.369Z,102286.34
2023-02-19T20:09:49.540Z,102282.78
2023-02-19T20:12:16.775Z,102281.31
2023-02-19T20:14:45.666Z,102285.16
2023-02-19T20:17:12.741Z,102288.09
2023-02-19T20:19:39.293Z,102291.94
2023-02-19T20:22:06.047Z,102290.22
2023-02-19T20:24:32.836Z,102287.75
2023-02-19T20:27:02.051Z,102294.81
2023-02-19T20:29:30.764Z,102295.81
2023-02-19T20:32:02.406Z,102293.75
2023-02-19T20:34:29.960Z,102301.53
2023-02-19T20:36:56.959Z,102304.81
2023-02-19T20:39:28.716Z,102297.53
2023-02-19T20:41:56.138Z,102300.81
2023-02-19T20:44:22.701Z,102298.81
2023-02-19T20:46:53.515Z,102306.59
2023-02-19T20:49:22.406Z,102316.09
2023-02-19T20:51:54.835Z,102310.81
2023-02-19T20:54:25.548Z,102318.78
2023-02-19T20:56:55.997Z,102307.81
2023-02-19T20:59:30.946Z,102311.41
2023-02-19T21:02:01.919Z,102318.56
2023-02-19T21:04:28.794Z,102307.56
2023-02-19T21:06:55.424Z,102309.94
2023-02-19T21:09:23.025Z,102318.88
2023-02-19T21:11:50.455Z,102322.72
2023-02-19T21:14:17.828Z,102316.00
2023-02-19T21:16:44.877Z,102321.00
2023-02-19T21:19:12.963Z,102316.34
2023-02-19T21:21:40.365Z,102317.66
2023-02-19T21:24:07.563Z,102323.59
2023-02-19T21:26:36.285Z,102312.16
2023-02-19T21:29:04.204Z,102323.97
2023-02-19T21:31:42.445Z,102323.19
2023-02-19T21:34:11.283Z,102336.63
2023-02-19T21:36:38.003Z,102330.50
2023-02-19T21:39:06.321Z,102321.75
2023-02-19T21:41:33.175Z,102328.94
2023-02-19T21:43:59.927Z,102346.03
2023-02-19T21:46:27.061Z,102338.91
2023-02-19T21:48:55.634Z,102337.19
2023-02-19T21:51:28.706Z,102343.63
2023-02-19T21:53:55.241Z,102342.94
2023-02-19T21:56:27.618Z,102343.88
2023-02-19T21:58:54.431Z,102344.06
2023-02-19T22:01:22.841Z,102344.16
2023-02-19T22:03:49.459Z,102344.16
2023-02-19T22:06:16.318Z,102357.66
2023-02-19T22:08:43.821Z,102348.81
2023-02-19T22:11:10.477Z,102365.72
2023-02-19T22:13:37.064Z,102361.53
2023-02-19T22:16:07.520Z,102368.94
2023-02-19T22:18:37.721Z,102377.34
2023-02-19T22:21:05.351Z,102381.28
2023-02-19T22:23:32.036Z,102378.16
2023-02-19T22:25:58.666Z,102367.06
2023-02-19T22:28:25.204Z,102368.41
2023-02-19T22:30:51.749Z,102364.56
2023-02-19T22:33:18.300Z,102375.91
2023-02-19T22:35:44.894Z,102375.53
2023-02-19T22:38:11.720Z,102369.19
2023-02-19T22:40:38.284Z,102366.50
2023-02-19T22:43:04.860Z,102361.22
2023-02-19T22:45:31.505Z,102364.00
2023-02-19T22:47:58.081Z,102362.28
2023-02-19T22:50:26.451Z,102362.28
2023-02-19T22:52:55.117Z,102358.72
2023-02-19T22:55:22.165Z,102365.72
2023-02-19T22:57:48.830Z,102361.31
2023-02-19T23:00:20.961Z,102362.28
2023-02-19T23:02:48.524Z,102363.03
2023-02-19T23:05:16.140Z,102357.47
2023-02-19T23:07:46.583Z,102349.41
2023-02-19T23:10:13.509Z,102349.41
2023-02-19T23:12:40.649Z,102351.13
2023-02-19T23:15:08.983Z,102348.25
2023-02-19T23:17:35.727Z,102347.28
2023-02-19T23:20:02.594Z,102343.63
2023-02-19T23:22:29.229Z,102343.63
2023-02-19T23:24:55.880Z,102335.56
2023-02-19T23:27:24.317Z,102333.84
2023-02-19T23:29:50.948Z,102342.78
2023-02-19T23:32:21.004Z,102336.53
2023-02-19T23:34:48.330Z,102331.94
2023-02-19T23:37:15.048Z,102321.94
2023-02-19T23:39:41.631Z,102323.66
2023-02-19T23:42:12.708Z,102320.97
2023-02-19T23:44:39.288Z,102325.41
2023-02-19T23:47:05.843Z,102333.25
2023-02-19T23:49:32.390Z,102334.03
2023-02-19T23:51:58.957Z,102326.94
2023-02-19T23:54:25.518Z,102325.03
2023-02-19T23:56:52.102Z,102317.03
2023-02-19T23:59:19.845Z,102318.78
